createdAt,value
2022-10-07T00:01:31.672Z,102570.28
2022-10-07T00:04:34.425Z,102576.59
2022-10-07T00:07:38.916Z,102573.88
2022-10-07T00:10:43.787Z,102574.28
2022-10-07T00:13:48.111Z,102560.53
2022-10-07T00:16:51.263Z,102568.09
2022-10-07T00:19:54.222Z,102568.72
2022-10-07T00:22:58.523Z,102556.50
2022-10-07T00:26:02.681Z,102564.88
2022-10-07T00:29:07.045Z,102564.22
2022-10-07T00:32:09.796Z,102550.13
2022-10-07T00:35:12.587Z,102548.03
2022-10-07T00:38:16.686Z,102547.38
2022-10-07T00:41:21.642Z,102549.22
2022-10-07T00:44:42.606Z,102544.22
2022-10-07T00:47:47.688Z,102539.31
2022-10-07T00:50:53.094Z,102531.94
2022-10-07T00:53:57.805Z,102532.56
2022-10-07T00:57:00.660Z,102526.25
2022-10-07T01:00:03.947Z,102532.31
2022-10-07T01:03:06.747Z,102532.69
2022-10-07T01:06:10.347Z,102535.44
2022-10-07T01:09:14.870Z,102527.19
2022-10-07T01:12:24.654Z,102525.50
2022-10-07T01:15:37.340Z,102514.78
2022-10-07T01:18:47.715Z,102518.91
2022-10-07T01:22:03.981Z,102514.91
2022-10-07T01:25:24.073Z,102513.66
2022-10-07T01:28:33.241Z,102506.06
2022-10-07T01:31:39.280Z,102496.16
2022-10-07T01:34:44.826Z,102490.44
2022-10-07T01:37:50.625Z,102495.53
2022-10-07T01:40:58.222Z,102490.28
2022-10-07T01:44:02.675Z,102487.31
2022-10-07T01:47:05.982Z,102495.66
2022-10-07T01:50:13.534Z,102492.69
2022-10-07T01:53:44.415Z,102476.72
2022-10-07T01:57:01.035Z,102476.28
2022-10-07T02:00:11.145Z,102466.41
2022-10-07T02:03:31.663Z,102465.09
2022-10-07T02:06:44.350Z,102466.78
2022-10-07T02:09:52.895Z,102463.38
2022-10-07T02:13:06.176Z,102452.25
2022-10-07T02:16:17.647Z,102459.19
2022-10-07T02:19:23.982Z,102441.09
2022-10-07T02:22:29.887Z,102446.00
2022-10-07T02:25:37.472Z,102438.66
2022-10-07T02:28:43.593Z,102446.22
2022-10-07T02:31:49.631Z,102440.75
2022-10-07T02:34:55.935Z,102442.19
2022-10-07T02:38:02.600Z,102439.81
2022-10-07T02:41:10.314Z,102436.09
2022-10-07T02:44:25.901Z,102433.72
2022-10-07T02:47:35.040Z,102431.84
2022-10-07T02:50:42.425Z,102423.00
2022-10-07T02:53:49.329Z,102418.19
2022-10-07T02:56:54.494Z,102423.44
2022-10-07T03:00:01.095Z,102416.47
2022-10-07T03:03:05.929Z,102413.56
2022-10-07T03:06:09.716Z,102416.47
2022-10-07T03:09:12.805Z,102428.06
2022-10-07T03:12:15.496Z,102418.38
2022-10-07T03:15:18.360Z,102410.78
2022-10-07T03:18:28.498Z,102408.81
2022-10-07T03:21:34.079Z,102409.03
2022-10-07T03:24:36.735Z,102409.66
2022-10-07T03:27:40.238Z,102402.91
2022-10-07T03:30:42.816Z,102406.88
2022-10-07T03:33:46.762Z,102400.59
2022-10-07T03:36:49.324Z,102396.56
2022-10-07T03:39:52.720Z,102388.53
2022-10-07T03:42:55.388Z,102392.16
2022-10-07T03:45:58.299Z,102385.16
2022-10-07T03:49:02.549Z,102373.69
2022-10-07T03:52:06.551Z,102383.28
2022-10-07T03:55:10.116Z,102374.00
2022-10-07T03:58:13.008Z,102372.91
2022-10-07T04:01:16.359Z,102364.03
2022-10-07T04:04:20.717Z,102375.44
2022-10-07T04:07:23.295Z,102370.19
2022-10-07T04:10:25.946Z,102368.09
2022-10-07T04:13:28.954Z,102363.78
2022-10-07T04:16:37.810Z,102361.47
2022-10-07T04:19:42.205Z,102366.00
2022-10-07T04:22:44.809Z,102361.19
2022-10-07T04:25:48.336Z,102363.56
2022-10-07T04:28:51.498Z,102364.56
2022-10-07T04:31:54.845Z,102359.78
2022-10-07T04:34:58.892Z,102352.44
2022-10-07T04:38:01.462Z,102351.41
2022-10-07T04:41:06.901Z,102346.97
2022-10-07T04:44:09.460Z,102335.84
2022-10-07T04:47:12.242Z,102338.78
2022-10-07T04:50:16.672Z,102334.53
2022-10-07T04:53:20.471Z,102339.75
2022-10-07T04:56:23.421Z,102334.50
2022-10-07T04:59:29.729Z,102333.84
2022-10-07T05:02:32.890Z,102332.16
2022-10-07T05:05:39.297Z,102336.50
2022-10-07T05:08:44.077Z,102331.69
2022-10-07T05:11:46.747Z,102313.63
2022-10-07T05:14:49.305Z,102312.53
2022-10-07T05:17:55.934Z,102311.50
2022-10-07T05:20:59.887Z,102313.63
2022-10-07T05:24:02.439Z,102315.50
2022-10-07T05:27:05.239Z,102317.19
2022-10-07T05:30:08.773Z,102314.31
2022-10-07T05:33:11.454Z,102298.38
2022-10-07T05:36:15.485Z,102297.13
2022-10-07T05:39:18.035Z,102303.22
2022-10-07T05:42:21.093Z,102298.41
2022-10-07T05:45:23.656Z,102297.19
2022-10-07T05:48:26.323Z,102291.53
2022-10-07T05:51:30.364Z,102284.84
2022-10-07T05:54:33.223Z,102287.38
2022-10-07T05:57:38.370Z,102289.69
2022-10-07T06:00:43.404Z,102290.81
2022-10-07T06:03:51.056Z,102291.00
2022-10-07T06:06:55.262Z,102293.97
2022-10-07T06:10:15.556Z,102293.63
2022-10-07T06:13:18.343Z,102289.47
2022-10-07T06:16:21.698Z,102294.31
2022-10-07T06:19:24.555Z,102284.53
2022-10-07T06:22:28.859Z,102288.59
2022-10-07T06:25:31.406Z,102284.28
2022-10-07T06:28:35.057Z,102281.03
2022-10-07T06:31:38.067Z,102275.38
2022-10-07T06:34:40.824Z,102281.44
2022-10-07T06:37:45.041Z,102286.13
2022-10-07T06:40:58.873Z,102283.06
2022-10-07T06:44:01.712Z,102286.06
2022-10-07T06:47:07.877Z,102289.81
2022-10-07T06:50:14.062Z,102295.75
2022-10-07T06:53:18.154Z,102279.19
2022-10-07T06:56:21.110Z,102282.31
2022-10-07T06:59:23.820Z,102288.97
2022-10-07T07:02:26.592Z,102275.69
2022-10-07T07:05:33.545Z,102286.31
2022-10-07T07:08:38.780Z,102284.59
2022-10-07T07:11:43.458Z,102285.31
2022-10-07T07:14:46.053Z,102279.16
2022-10-07T07:17:51.135Z,102278.09
2022-10-07T07:20:53.932Z,102282.53
2022-10-07T07:23:58.882Z,102284.50
2022-10-07T07:27:01.829Z,102279.44
2022-10-07T07:30:05.403Z,102279.91
2022-10-07T07:33:08.359Z,102277.09
2022-10-07T07:36:16.440Z,102273.69
2022-10-07T07:39:21.185Z,102273.13
2022-10-07T07:42:24.008Z,102263.75
2022-10-07T07:45:26.605Z,102262.78
2022-10-07T07:48:30.532Z,102268.25
2022-10-07T07:51:34.329Z,102259.13
2022-10-07T07:54:39.672Z,102262.88
2022-10-07T07:57:42.779Z,102267.59
2022-10-07T08:00:46.135Z,102266.69
2022-10-07T08:03:50.048Z,102263.50
2022-10-07T08:06:52.881Z,102253.94
2022-10-07T08:09:56.894Z,102259.13
2022-10-07T08:12:59.426Z,102256.38
2022-10-07T08:16:04.160Z,102246.59
2022-10-07T08:19:07.142Z,102245.13
2022-10-07T08:22:09.695Z,102242.56
2022-10-07T08:25:15.084Z,102243.56
2022-10-07T08:28:18.571Z,102236.97
2022-10-07T08:31:21.636Z,102240.47
2022-10-07T08:34:24.535Z,102231.03
2022-10-07T08:37:27.149Z,102225.16
2022-10-07T08:40:31.352Z,102223.00
2022-10-07T08:43:34.754Z,102213.34
2022-10-07T08:46:39.225Z,102219.13
2022-10-07T08:49:54.545Z,102222.13
2022-10-07T08:53:00.248Z,102216.84
2022-10-07T08:56:10.677Z,102213.84
2022-10-07T08:59:20.405Z,102207.13
2022-10-07T09:02:32.295Z,102194.03
2022-10-07T09:05:40.411Z,102196.38
2022-10-07T09:08:45.654Z,102186.16
2022-10-07T09:11:52.035Z,102187.66
2022-10-07T09:14:57.885Z,102182.84
2022-10-07T09:18:05.596Z,102170.63
2022-10-07T09:21:13.718Z,102167.41
2022-10-07T09:24:24.752Z,102170.34
2022-10-07T09:27:38.181Z,102154.94
2022-10-07T09:30:42.240Z,102155.81
2022-10-07T09:33:47.021Z,102156.22
2022-10-07T09:37:12.986Z,102145.81
2022-10-07T09:40:23.814Z,102145.72
2022-10-07T09:43:28.435Z,102141.88
2022-10-07T09:46:53.330Z,102139.81
2022-10-07T09:49:59.789Z,102132.28
2022-10-07T09:53:02.888Z,102127.69
2022-10-07T09:56:05.560Z,102120.25
2022-10-07T09:59:21.876Z,102116.72
2022-10-07T10:02:27.597Z,102107.34
2022-10-07T10:05:32.826Z,102108.09
2022-10-07T10:08:37.928Z,102108.00
2022-10-07T10:11:40.671Z,102108.09
2022-10-07T10:14:52.505Z,102106.38
2022-10-07T10:17:58.649Z,102103.28
2022-10-07T10:21:32.495Z,102095.47
2022-10-07T10:24:53.776Z,102102.13
2022-10-07T10:28:09.272Z,102090.28
2022-10-07T10:31:25.481Z,102076.63
2022-10-07T10:34:38.309Z,102073.19
2022-10-07T10:37:58.376Z,102068.56
2022-10-07T10:41:12.595Z,102065.59
2022-10-07T10:44:42.947Z,102049.94
2022-10-07T10:48:03.270Z,102048.72
2022-10-07T10:51:18.011Z,102040.50
2022-10-07T10:54:28.902Z,102030.59
2022-10-07T10:57:44.242Z,102038.59
2022-10-07T11:00:59.694Z,102017.16
2022-10-07T11:04:29.726Z,102015.94
2022-10-07T11:07:36.728Z,102001.88
2022-10-07T11:10:43.219Z,102001.16
2022-10-07T11:13:51.855Z,101992.41
2022-10-07T11:16:59.668Z,101982.81
2022-10-07T11:20:15.475Z,101980.66
2022-10-07T11:23:24.381Z,101973.19
2022-10-07T11:26:34.718Z,101956.50
2022-10-07T11:29:43.541Z,101967.50
2022-10-07T11:32:50.660Z,101962.34
2022-10-07T11:35:59.491Z,101957.16
2022-10-07T11:39:02.428Z,101945.75
2022-10-07T11:42:12.597Z,101948.25
2022-10-07T11:45:21.378Z,101945.03
2022-10-07T11:48:29.728Z,101935.53
2022-10-07T11:51:37.860Z,101934.47
2022-10-07T11:54:44.187Z,101924.41
2022-10-07T11:57:54.083Z,101913.69
2022-10-07T12:01:30.572Z,101907.00
2022-10-07T12:04:38.902Z,101892.38
2022-10-07T12:07:59.318Z,101891.31
2022-10-07T12:11:44.038Z,101889.34
2022-10-07T12:15:00.589Z,101889.47
2022-10-07T12:18:28.799Z,101875.84
2022-10-07T12:22:03.164Z,101871.31
2022-10-07T12:25:32.373Z,101858.19
2022-10-07T12:28:46.013Z,101861.78
2022-10-07T12:31:49.502Z,101851.97
2022-10-07T12:34:52.287Z,101846.31
2022-10-07T12:38:04.253Z,101833.75
2022-10-07T12:41:28.173Z,101827.47
2022-10-07T12:44:36.928Z,101834.66
2022-10-07T12:47:40.290Z,101829.69
2022-10-07T12:50:44.658Z,101824.34
2022-10-07T12:53:54.312Z,101821.47
2022-10-07T12:56:59.621Z,101816.00
2022-10-07T13:00:07.974Z,101810.78
2022-10-07T13:03:41.063Z,101806.69
2022-10-07T13:07:33.376Z,101806.47
2022-10-07T13:10:57.620Z,101802.75
2022-10-07T13:14:04.859Z,101798.91
2022-10-07T13:17:23.739Z,101804.13
2022-10-07T13:20:39.431Z,101790.97
2022-10-07T13:23:51.529Z,101794.53
2022-10-07T13:26:54.259Z,101791.34
2022-10-07T13:29:59.694Z,101789.91
2022-10-07T13:33:15.726Z,101778.47
2022-10-07T13:36:22.107Z,101775.44
2022-10-07T13:39:25.751Z,101768.81
2022-10-07T13:42:30.033Z,101761.00
2022-10-07T13:45:43.096Z,101766.38
2022-10-07T13:48:48.323Z,101766.41
2022-10-07T13:51:56.100Z,101746.84
2022-10-07T13:54:58.917Z,101742.81
2022-10-07T13:58:04.642Z,101746.44
2022-10-07T14:01:09.207Z,101730.72
2022-10-07T14:04:25.275Z,101728.00
2022-10-07T14:07:29.489Z,101731.31
2022-10-07T14:10:32.695Z,101723.25
2022-10-07T14:13:37.843Z,101719.50
2022-10-07T14:16:41.840Z,101710.69
2022-10-07T14:19:44.751Z,101705.38
2022-10-07T14:22:51.029Z,101692.56
2022-10-07T14:25:56.225Z,101696.94
2022-10-07T14:28:58.800Z,101689.81
2022-10-07T14:32:30.514Z,101688.72
2022-10-07T14:35:34.125Z,101682.22
2022-10-07T14:38:36.783Z,101676.28
2022-10-07T14:41:39.539Z,101673.31
2022-10-07T14:44:43.974Z,101667.78
2022-10-07T14:47:48.519Z,101668.06
2022-10-07T14:50:51.835Z,101655.88
2022-10-07T14:53:56.922Z,101650.88
2022-10-07T14:56:59.764Z,101651.16
2022-10-07T15:00:02.739Z,101652.56
2022-10-07T15:03:07.032Z,101644.25
2022-10-07T15:06:09.717Z,101642.94
2022-10-07T15:09:13.656Z,101644.84
2022-10-07T15:12:17.457Z,101642.94
2022-10-07T15:15:20.342Z,101642.31
2022-10-07T15:18:24.350Z,101639.84
2022-10-07T15:21:29.453Z,101628.50
2022-10-07T15:24:33.058Z,101630.25
2022-10-07T15:27:35.648Z,101619.97
2022-10-07T15:30:39.542Z,101623.66
2022-10-07T15:33:44.315Z,101628.97
2022-10-07T15:36:48.081Z,101623.16
2022-10-07T15:39:51.284Z,101620.97
2022-10-07T15:42:53.890Z,101624.28
2022-10-07T15:45:58.804Z,101619.31
2022-10-07T15:49:03.640Z,101612.09
2022-10-07T15:52:06.554Z,101609.91
2022-10-07T15:55:09.710Z,101611.00
2022-10-07T15:58:12.422Z,101609.34
2022-10-07T16:01:15.706Z,101619.34
2022-10-07T16:04:20.337Z,101614.91
2022-10-07T16:07:24.095Z,101613.78
2022-10-07T16:10:26.971Z,101612.41
2022-10-07T16:13:30.427Z,101617.66
2022-10-07T16:16:33.236Z,101614.59
2022-10-07T16:19:37.204Z,101615.97
2022-10-07T16:22:39.772Z,101615.91
2022-10-07T16:25:43.377Z,101608.94
2022-10-07T16:29:04.912Z,101608.63
2022-10-07T16:32:10.559Z,101606.63
2022-10-07T16:35:14.756Z,101604.38
2022-10-07T16:38:18.065Z,101608.72
2022-10-07T16:41:22.020Z,101603.13
2022-10-07T16:44:24.935Z,101597.84
2022-10-07T16:47:32.887Z,101599.91
2022-10-07T16:50:36.843Z,101603.69
2022-10-07T16:53:41.122Z,101603.03
2022-10-07T16:56:48.056Z,101590.50
2022-10-07T16:59:53.405Z,101602.59
2022-10-07T17:02:55.949Z,101594.97
2022-10-07T17:06:00.165Z,101594.66
2022-10-07T17:09:04.329Z,101594.84
2022-10-07T17:12:07.010Z,101607.97
2022-10-07T17:15:10.128Z,101589.13
2022-10-07T17:18:12.764Z,101593.72
2022-10-07T17:21:16.670Z,101590.75
2022-10-07T17:24:21.767Z,101598.91
2022-10-07T17:27:24.381Z,101593.34
2022-10-07T17:30:27.057Z,101585.75
2022-10-07T17:33:30.242Z,101588.69
2022-10-07T17:36:34.582Z,101584.47
2022-10-07T17:39:37.419Z,101582.94
2022-10-07T17:42:40.113Z,101581.19
2022-10-07T17:45:42.910Z,101575.28
2022-10-07T17:48:46.578Z,101572.63
2022-10-07T17:51:50.637Z,101572.22
2022-10-07T17:54:56.643Z,101569.56
2022-10-07T17:57:59.247Z,101564.97
2022-10-07T18:01:06.884Z,101572.09
2022-10-07T18:04:12.796Z,101560.16
2022-10-07T18:07:17.533Z,101564.13
2022-10-07T18:10:20.186Z,101560.38
2022-10-07T18:13:40.755Z,101560.31
2022-10-07T18:16:43.545Z,101558.53
2022-10-07T18:19:46.609Z,101545.78
2022-10-07T18:22:54.679Z,101548.44
2022-10-07T18:26:01.968Z,101549.94
2022-10-07T18:29:05.394Z,101550.06
2022-10-07T18:32:09.172Z,101534.00
2022-10-07T18:35:12.019Z,101544.06
2022-10-07T18:38:15.986Z,101535.34
2022-10-07T18:41:19.772Z,101523.44
2022-10-07T18:44:22.718Z,101519.53
2022-10-07T18:47:25.365Z,101520.50
2022-10-07T18:50:32.698Z,101510.75
2022-10-07T18:53:39.498Z,101518.63
2022-10-07T18:56:42.125Z,101507.66
2022-10-07T18:59:44.726Z,101504.09
2022-10-07T19:02:51.133Z,101509.00
2022-10-07T19:05:54.120Z,101500.16
2022-10-07T19:09:00.107Z,101498.75
2022-10-07T19:12:02.901Z,101503.41
2022-10-07T19:15:05.193Z,101495.09
2022-10-07T19:18:07.757Z,101498.03
2022-10-07T19:21:11.347Z,101487.56
2022-10-07T19:24:16.425Z,101484.44
2022-10-07T19:27:19.106Z,101488.25
2022-10-07T19:30:21.622Z,101481.81
2022-10-07T19:33:25.457Z,101478.13
2022-10-07T19:36:28.224Z,101474.47
2022-10-07T19:39:32.107Z,101482.09
2022-10-07T19:42:35.002Z,101473.50
2022-10-07T19:45:38.629Z,101478.41
2022-10-07T19:48:42.336Z,101475.06
2022-10-07T19:51:45.487Z,101484.38
2022-10-07T19:54:50.427Z,101490.84
2022-10-07T19:57:54.530Z,101484.16
2022-10-07T20:01:04.136Z,101479.63
2022-10-07T20:04:08.726Z,101485.59
2022-10-07T20:07:11.565Z,101476.53
2022-10-07T20:10:15.532Z,101473.53
2022-10-07T20:13:18.118Z,101472.13
2022-10-07T20:16:22.554Z,101467.94
2022-10-07T20:19:25.194Z,101458.63
2022-10-07T20:22:27.748Z,101457.22
2022-10-07T20:25:31.733Z,101446.72
2022-10-07T20:28:35.674Z,101443.97
2022-10-07T20:31:40.153Z,101441.81
2022-10-07T20:34:42.910Z,101450.50
2022-10-07T20:37:45.477Z,101443.59
2022-10-07T20:41:11.720Z,101440.84
2022-10-07T20:44:16.003Z,101439.69
2022-10-07T20:47:19.725Z,101436.34
2022-10-07T20:50:22.484Z,101431.09
2022-10-07T20:53:25.035Z,101432.44
2022-10-07T20:56:28.950Z,101426.91
2022-10-07T20:59:32.417Z,101425.16
2022-10-07T21:02:35.073Z,101412.56
2022-10-07T21:05:38.555Z,101420.50
2022-10-07T21:08:41.564Z,101425.69
2022-10-07T21:11:46.017Z,101419.69
2022-10-07T21:14:49.871Z,101422.44
2022-10-07T21:17:52.385Z,101411.22
2022-10-07T21:20:56.961Z,101407.22
2022-10-07T21:23:59.792Z,101404.22
2022-10-07T21:27:05.485Z,101398.38
2022-10-07T21:30:10.378Z,101404.47
2022-10-07T21:33:13.534Z,101399.16
2022-10-07T21:36:18.666Z,101394.47
2022-10-07T21:39:21.464Z,101392.56
2022-10-07T21:42:25.620Z,101388.72
2022-10-07T21:45:30.981Z,101385.22
2022-10-07T21:48:33.779Z,101387.75
2022-10-07T21:51:36.767Z,101381.16
2022-10-07T21:54:41.077Z,101379.16
2022-10-07T21:57:45.081Z,101373.47
2022-10-07T22:00:47.867Z,101363.75
2022-10-07T22:03:54.871Z,101360.22
2022-10-07T22:07:15.531Z,101360.31
2022-10-07T22:10:18.389Z,101354.47
2022-10-07T22:13:22.343Z,101359.28
2022-10-07T22:16:25.297Z,101357.56
2022-10-07T22:19:27.932Z,101344.66
2022-10-07T22:22:31.643Z,101343.25
2022-10-07T22:25:35.213Z,101339.59
2022-10-07T22:28:39.795Z,101342.66
2022-10-07T22:31:43.001Z,101333.00
2022-10-07T22:35:03.120Z,101326.31
2022-10-07T22:38:05.906Z,101322.75
2022-10-07T22:41:10.753Z,101320.16
2022-10-07T22:44:15.181Z,101314.16
2022-10-07T22:47:17.760Z,101312.91
2022-10-07T22:50:20.357Z,101305.16
2022-10-07T22:53:23.037Z,101308.16
2022-10-07T22:56:27.592Z,101306.72
2022-10-07T22:59:31.623Z,101295.16
2022-10-07T23:02:34.464Z,101298.03
2022-10-07T23:05:38.036Z,101295.09
2022-10-07T23:08:41.169Z,101295.19
2022-10-07T23:11:43.755Z,101288.97
2022-10-07T23:14:47.923Z,101290.47
2022-10-07T23:17:50.480Z,101279.19
2022-10-07T23:20:59.694Z,101275.47
2022-10-07T23:24:07.264Z,101284.03
2022-10-07T23:27:11.259Z,101282.88
2022-10-07T23:30:15.360Z,101282.88
2022-10-07T23:33:21.239Z,101271.22
2022-10-07T23:36:24.969Z,101272.41
2022-10-07T23:39:27.574Z,101265.97
2022-10-07T23:42:30.638Z,101256.31
2022-10-07T23:45:34.551Z,101262.38
2022-10-07T23:48:37.402Z,101263.38
2022-10-07T23:51:40.198Z,101247.00
2022-10-07T23:54:42.883Z,101252.56
2022-10-07T23:57:45.460Z,101258.16
